sensor_id;sensor_type;location;lat;lon;timestamp;temperature;humidity
3017;DHT22;1518;52.408;13.060;2022-12-07T00:00:41;14.50;85.70
3017;DHT22;1518;52.408;13.060;2022-12-07T00:03:29;14.50;86.00
3017;DHT22;1518;52.408;13.060;2022-12-07T00:06:18;14.50;85.90
3017;DHT22;1518;52.408;13.060;2022-12-07T00:09:10;14.50;86.30
3017;DHT22;1518;52.408;13.060;2022-12-07T00:11:59;14.50;86.40
3017;DHT22;1518;52.408;13.060;2022-12-07T00:14:48;14.50;86.20
3017;DHT22;1518;52.408;13.060;2022-12-07T00:17:36;14.50;86.20
3017;DHT22;1518;52.408;13.060;2022-12-07T00:20:24;14.50;86.40
3017;DHT22;1518;52.408;13.060;2022-12-07T00:23:12;14.50;86.10
3017;DHT22;1518;52.408;13.060;2022-12-07T00:26:04;14.50;86.10
3017;DHT22;1518;52.408;13.060;2022-12-07T00:28:55;14.50;91.10
3017;DHT22;1518;52.408;13.060;2022-12-07T00:31:43;14.50;86.40
3017;DHT22;1518;52.408;13.060;2022-12-07T00:34:31;14.50;85.80
3017;DHT22;1518;52.408;13.060;2022-12-07T00:37:19;14.50;86.20
3017;DHT22;1518;52.408;13.060;2022-12-07T00:40:08;14.60;85.70
3017;DHT22;1518;52.408;13.060;2022-12-07T00:42:56;14.60;85.80
3017;DHT22;1518;52.408;13.060;2022-12-07T00:45:46;14.60;85.90
3017;DHT22;1518;52.408;13.060;2022-12-07T00:48:34;14.60;85.00
3017;DHT22;1518;52.408;13.060;2022-12-07T00:51:23;14.60;84.70
3017;DHT22;1518;52.408;13.060;2022-12-07T00:54:12;14.50;85.00
3017;DHT22;1518;52.408;13.060;2022-12-07T00:57:00;14.50;84.90
3017;DHT22;1518;52.408;13.060;2022-12-07T00:59:48;14.50;85.50
3017;DHT22;1518;52.408;13.060;2022-12-07T01:02:38;14.50;85.40
3017;DHT22;1518;52.408;13.060;2022-12-07T01:05:26;14.50;85.40
3017;DHT22;1518;52.408;13.060;2022-12-07T01:08:14;14.50;85.10
3017;DHT22;1518;52.408;13.060;2022-12-07T01:11:04;14.40;85.20
3017;DHT22;1518;52.408;13.060;2022-12-07T01:13:55;14.40;85.30
3017;DHT22;1518;52.408;13.060;2022-12-07T01:16:43;14.40;85.50
3017;DHT22;1518;52.408;13.060;2022-12-07T01:19:33;14.40;85.50
3017;DHT22;1518;52.408;13.060;2022-12-07T01:22:21;14.30;84.90
3017;DHT22;1518;52.408;13.060;2022-12-07T01:25:11;14.30;85.10
3017;DHT22;1518;52.408;13.060;2022-12-07T01:27:59;14.30;85.30
3017;DHT22;1518;52.408;13.060;2022-12-07T01:30:55;14.30;85.30
3017;DHT22;1518;52.408;13.060;2022-12-07T01:33:44;14.30;85.50
3017;DHT22;1518;52.408;13.060;2022-12-07T01:36:35;14.30;85.80
3017;DHT22;1518;52.408;13.060;2022-12-07T01:39:24;14.40;85.40
3017;DHT22;1518;52.408;13.060;2022-12-07T01:42:13;14.40;85.80
3017;DHT22;1518;52.408;13.060;2022-12-07T01:48:35;14.50;85.00
3017;DHT22;1518;52.408;13.060;2022-12-07T01:51:24;14.50;84.70
3017;DHT22;1518;52.408;13.060;2022-12-07T01:54:14;14.50;84.90
3017;DHT22;1518;52.408;13.060;2022-12-07T01:57:05;14.50;85.20
3017;DHT22;1518;52.408;13.060;2022-12-07T01:59:55;14.60;84.60
3017;DHT22;1518;52.408;13.060;2022-12-07T02:02:48;14.60;85.10
3017;DHT22;1518;52.408;13.060;2022-12-07T02:05:40;14.60;85.00
3017;DHT22;1518;52.408;13.060;2022-12-07T02:08:29;14.60;84.60
3017;DHT22;1518;52.408;13.060;2022-12-07T02:11:18;14.60;84.60
3017;DHT22;1518;52.408;13.060;2022-12-07T02:14:07;14.60;84.40
3017;DHT22;1518;52.408;13.060;2022-12-07T02:17:05;14.50;84.60
3017;DHT22;1518;52.408;13.060;2022-12-07T02:20:21;14.50;84.70
3017;DHT22;1518;52.408;13.060;2022-12-07T02:29:55;14.50;84.20
3017;DHT22;1518;52.408;13.060;2022-12-07T02:32:54;14.50;84.50
3017;DHT22;1518;52.408;13.060;2022-12-07T02:35:50;14.40;84.40
3017;DHT22;1518;52.408;13.060;2022-12-07T02:38:44;14.30;83.80
3017;DHT22;1518;52.408;13.060;2022-12-07T02:41:36;14.40;84.30
3017;DHT22;1518;52.408;13.060;2022-12-07T02:44:28;14.30;84.30
3017;DHT22;1518;52.408;13.060;2022-12-07T02:47:21;14.30;84.60
3017;DHT22;1518;52.408;13.060;2022-12-07T02:50:11;14.30;84.60
3017;DHT22;1518;52.408;13.060;2022-12-07T02:52:59;14.30;85.20
3017;DHT22;1518;52.408;13.060;2022-12-07T02:55:47;14.30;84.50
3017;DHT22;1518;52.408;13.060;2022-12-07T02:58:43;14.30;85.40
3017;DHT22;1518;52.408;13.060;2022-12-07T03:01:41;14.30;85.30
3017;DHT22;1518;52.408;13.060;2022-12-07T03:04:42;14.40;85.20
3017;DHT22;1518;52.408;13.060;2022-12-07T03:07:37;14.40;84.90
3017;DHT22;1518;52.408;13.060;2022-12-07T03:10:34;14.50;85.40
3017;DHT22;1518;52.408;13.060;2022-12-07T03:13:27;14.50;85.10
3017;DHT22;1518;52.408;13.060;2022-12-07T03:16:19;14.60;84.90
3017;DHT22;1518;52.408;13.060;2022-12-07T03:19:10;14.60;84.70
3017;DHT22;1518;52.408;13.060;2022-12-07T03:22:05;14.60;84.60
3017;DHT22;1518;52.408;13.060;2022-12-07T03:24:59;14.70;84.80
3017;DHT22;1518;52.408;13.060;2022-12-07T03:27:51;14.70;84.60
3017;DHT22;1518;52.408;13.060;2022-12-07T03:30:46;14.70;84.50
3017;DHT22;1518;52.408;13.060;2022-12-07T03:33:40;14.70;84.30
3017;DHT22;1518;52.408;13.060;2022-12-07T03:36:34;14.70;83.80
3017;DHT22;1518;52.408;13.060;2022-12-07T03:39:28;14.70;84.30
3017;DHT22;1518;52.408;13.060;2022-12-07T03:42:18;14.70;84.20
3017;DHT22;1518;52.408;13.060;2022-12-07T03:45:07;14.60;84.20
3017;DHT22;1518;52.408;13.060;2022-12-07T03:48:02;14.60;84.40
3017;DHT22;1518;52.408;13.060;2022-12-07T03:50:54;14.60;84.30
3017;DHT22;1518;52.408;13.060;2022-12-07T03:53:48;14.60;84.30
3017;DHT22;1518;52.408;13.060;2022-12-07T03:56:40;14.60;84.40
3017;DHT22;1518;52.408;13.060;2022-12-07T03:59:29;14.50;84.40
3017;DHT22;1518;52.408;13.060;2022-12-07T04:02:18;14.50;84.30
3017;DHT22;1518;52.408;13.060;2022-12-07T04:05:07;14.50;84.50
3017;DHT22;1518;52.408;13.060;2022-12-07T04:07:56;14.40;84.30
3017;DHT22;1518;52.408;13.060;2022-12-07T04:10:44;14.40;84.50
3017;DHT22;1518;52.408;13.060;2022-12-07T04:13:33;14.40;84.40
3017;DHT22;1518;52.408;13.060;2022-12-07T04:16:42;14.30;84.70
3017;DHT22;1518;52.408;13.060;2022-12-07T04:19:32;14.30;84.70
3017;DHT22;1518;52.408;13.060;2022-12-07T04:22:21;14.30;85.10
3017;DHT22;1518;52.408;13.060;2022-12-07T04:25:09;14.30;85.30
3017;DHT22;1518;52.408;13.060;2022-12-07T04:27:57;14.40;85.60
3017;DHT22;1518;52.408;13.060;2022-12-07T04:30:46;14.50;85.60
3017;DHT22;1518;52.408;13.060;2022-12-07T04:33:35;14.60;85.50
3017;DHT22;1518;52.408;13.060;2022-12-07T04:36:23;14.80;85.30
3017;DHT22;1518;52.408;13.060;2022-12-07T04:39:18;14.80;84.90
3017;DHT22;1518;52.408;13.060;2022-12-07T04:42:07;14.90;85.00
3017;DHT22;1518;52.408;13.060;2022-12-07T04:44:55;14.80;84.50
3017;DHT22;1518;52.408;13.060;2022-12-07T04:47:44;14.90;84.60
3017;DHT22;1518;52.408;13.060;2022-12-07T04:50:32;15.00;83.70
3017;DHT22;1518;52.408;13.060;2022-12-07T04:53:20;15.00;84.20
3017;DHT22;1518;52.408;13.060;2022-12-07T04:56:08;15.00;84.30
3017;DHT22;1518;52.408;13.060;2022-12-07T04:58:57;15.00;84.20
3017;DHT22;1518;52.408;13.060;2022-12-07T05:01:45;15.00;83.90
3017;DHT22;1518;52.408;13.060;2022-12-07T05:04:34;15.00;84.00
3017;DHT22;1518;52.408;13.060;2022-12-07T05:07:22;15.00;84.00
3017;DHT22;1518;52.408;13.060;2022-12-07T05:10:10;15.00;84.00
3017;DHT22;1518;52.408;13.060;2022-12-07T05:12:58;15.00;83.80
3017;DHT22;1518;52.408;13.060;2022-12-07T05:15:46;14.90;83.90
3017;DHT22;1518;52.408;13.060;2022-12-07T05:18:35;14.90;84.10
3017;DHT22;1518;52.408;13.060;2022-12-07T05:21:24;14.90;84.10
3017;DHT22;1518;52.408;13.060;2022-12-07T05:24:13;14.80;83.90
3017;DHT22;1518;52.408;13.060;2022-12-07T05:27:02;14.80;84.40
3017;DHT22;1518;52.408;13.060;2022-12-07T05:29:50;14.80;84.30
3017;DHT22;1518;52.408;13.060;2022-12-07T05:32:39;14.70;84.40
3017;DHT22;1518;52.408;13.060;2022-12-07T05:35:27;14.70;84.40
3017;DHT22;1518;52.408;13.060;2022-12-07T05:38:16;14.70;84.40
3017;DHT22;1518;52.408;13.060;2022-12-07T05:41:06;14.60;84.50
3017;DHT22;1518;52.408;13.060;2022-12-07T05:43:54;14.60;84.60
3017;DHT22;1518;52.408;13.060;2022-12-07T05:46:42;14.50;84.50
3017;DHT22;1518;52.408;13.060;2022-12-07T05:49:31;14.50;84.60
3017;DHT22;1518;52.408;13.060;2022-12-07T05:52:19;14.50;84.70
3017;DHT22;1518;52.408;13.060;2022-12-07T05:55:08;14.50;84.80
3017;DHT22;1518;52.408;13.060;2022-12-07T05:57:56;14.50;84.80
3017;DHT22;1518;52.408;13.060;2022-12-07T06:01:02;14.50;84.90
3017;DHT22;1518;52.408;13.060;2022-12-07T06:03:51;14.50;85.00
3017;DHT22;1518;52.408;13.060;2022-12-07T06:06:39;14.50;85.00
3017;DHT22;1518;52.408;13.060;2022-12-07T06:09:28;14.40;90.40
3017;DHT22;1518;52.408;13.060;2022-12-07T06:12:17;14.50;85.40
3017;DHT22;1518;52.408;13.060;2022-12-07T06:15:26;14.50;85.40
3017;DHT22;1518;52.408;13.060;2022-12-07T06:18:14;14.50;85.40
3017;DHT22;1518;52.408;13.060;2022-12-07T06:21:02;14.50;85.40
3017;DHT22;1518;52.408;13.060;2022-12-07T06:23:50;14.50;85.40
3017;DHT22;1518;52.408;13.060;2022-12-07T06:26:38;14.50;85.30
3017;DHT22;1518;52.408;13.060;2022-12-07T06:29:28;14.50;84.90
3017;DHT22;1518;52.408;13.060;2022-12-07T06:32:16;14.50;85.30
3017;DHT22;1518;52.408;13.060;2022-12-07T06:35:05;14.50;85.20
3017;DHT22;1518;52.408;13.060;2022-12-07T06:37:53;14.50;85.40
3017;DHT22;1518;52.408;13.060;2022-12-07T06:40:41;14.50;85.40
3017;DHT22;1518;52.408;13.060;2022-12-07T06:43:29;14.50;86.00
3017;DHT22;1518;52.408;13.060;2022-12-07T06:46:19;14.50;85.50
3017;DHT22;1518;52.408;13.060;2022-12-07T06:49:07;14.50;85.50
3017;DHT22;1518;52.408;13.060;2022-12-07T06:51:55;14.50;85.00
3017;DHT22;1518;52.408;13.060;2022-12-07T06:54:44;14.50;85.50
3017;DHT22;1518;52.408;13.060;2022-12-07T06:57:32;14.50;85.60
3017;DHT22;1518;52.408;13.060;2022-12-07T07:00:20;15.60;86.60
3017;DHT22;1518;52.408;13.060;2022-12-07T07:03:10;14.40;85.30
3017;DHT22;1518;52.408;13.060;2022-12-07T07:05:58;14.40;85.50
3017;DHT22;1518;52.408;13.060;2022-12-07T07:08:46;14.40;85.50
3017;DHT22;1518;52.408;13.060;2022-12-07T07:11:34;14.40;85.40
3017;DHT22;1518;52.408;13.060;2022-12-07T07:14:22;14.40;85.50
3017;DHT22;1518;52.408;13.060;2022-12-07T07:17:10;14.40;85.40
3017;DHT22;1518;52.408;13.060;2022-12-07T07:20:00;14.40;85.50
3017;DHT22;1518;52.408;13.060;2022-12-07T07:22:48;14.40;85.50
3017;DHT22;1518;52.408;13.060;2022-12-07T07:25:37;14.40;85.70
3017;DHT22;1518;52.408;13.060;2022-12-07T07:28:25;14.40;85.70
3017;DHT22;1518;52.408;13.060;2022-12-07T07:31:13;14.20;85.40
3017;DHT22;1518;52.408;13.060;2022-12-07T07:34:01;14.40;85.60
3017;DHT22;1518;52.408;13.060;2022-12-07T07:36:51;14.40;85.40
3017;DHT22;1518;52.408;13.060;2022-12-07T07:39:39;14.40;85.70
3017;DHT22;1518;52.408;13.060;2022-12-07T07:42:27;14.40;85.70
3017;DHT22;1518;52.408;13.060;2022-12-07T07:45:16;15.10;86.30
3017;DHT22;1518;52.408;13.060;2022-12-07T07:48:04;14.50;85.70
3017;DHT22;1518;52.408;13.060;2022-12-07T07:50:52;14.50;85.70
3017;DHT22;1518;52.408;13.060;2022-12-07T07:53:42;14.50;85.70
3017;DHT22;1518;52.408;13.060;2022-12-07T07:56:30;14.50;85.70
3017;DHT22;1518;52.408;13.060;2022-12-07T07:59:19;14.40;85.10
3017;DHT22;1518;52.408;13.060;2022-12-07T08:02:09;14.50;85.60
3017;DHT22;1518;52.408;13.060;2022-12-07T08:05:01;14.50;85.60
3017;DHT22;1518;52.408;13.060;2022-12-07T08:07:49;14.40;85.50
3017;DHT22;1518;52.408;13.060;2022-12-07T08:10:39;14.40;85.50
3017;DHT22;1518;52.408;13.060;2022-12-07T08:13:27;14.40;85.70
3017;DHT22;1518;52.408;13.060;2022-12-07T08:16:17;14.40;85.70
3017;DHT22;1518;52.408;13.060;2022-12-07T08:19:06;14.40;85.70
3017;DHT22;1518;52.408;13.060;2022-12-07T08:21:54;14.40;85.00
3017;DHT22;1518;52.408;13.060;2022-12-07T08:24:42;14.40;85.60
3017;DHT22;1518;52.408;13.060;2022-12-07T08:27:32;14.30;85.50
3017;DHT22;1518;52.408;13.060;2022-12-07T08:30:20;14.30;85.70
3017;DHT22;1518;52.408;13.060;2022-12-07T08:33:09;14.30;85.50
3017;DHT22;1518;52.408;13.060;2022-12-07T08:36:00;14.30;85.30
3017;DHT22;1518;52.408;13.060;2022-12-07T08:38:49;14.30;85.50
3017;DHT22;1518;52.408;13.060;2022-12-07T08:41:57;14.40;85.60
3017;DHT22;1518;52.408;13.060;2022-12-07T08:44:46;14.40;85.40
3017;DHT22;1518;52.408;13.060;2022-12-07T08:47:37;14.40;86.20
3017;DHT22;1518;52.408;13.060;2022-12-07T08:50:26;14.50;85.70
3017;DHT22;1518;52.408;13.060;2022-12-07T08:53:14;14.50;85.10
3017;DHT22;1518;52.408;13.060;2022-12-07T08:56:04;14.50;85.00
3017;DHT22;1518;52.408;13.060;2022-12-07T08:58:53;14.60;85.00
3017;DHT22;1518;52.408;13.060;2022-12-07T09:01:42;14.60;85.10
3017;DHT22;1518;52.408;13.060;2022-12-07T09:04:31;14.60;84.80
3017;DHT22;1518;52.408;13.060;2022-12-07T09:07:19;14.60;84.80
3017;DHT22;1518;52.408;13.060;2022-12-07T09:10:07;14.60;84.20
3017;DHT22;1518;52.408;13.060;2022-12-07T09:12:56;14.60;84.10
3017;DHT22;1518;52.408;13.060;2022-12-07T09:15:47;14.60;84.10
3017;DHT22;1518;52.408;13.060;2022-12-07T09:18:38;14.60;83.70
3017;DHT22;1518;52.408;13.060;2022-12-07T09:21:26;14.50;84.20
3017;DHT22;1518;52.408;13.060;2022-12-07T09:24:14;14.50;84.40
3017;DHT22;1518;52.408;13.060;2022-12-07T09:27:02;14.60;84.20
3017;DHT22;1518;52.408;13.060;2022-12-07T09:29:51;14.60;84.60
3017;DHT22;1518;52.408;13.060;2022-12-07T09:32:39;14.50;84.60
3017;DHT22;1518;52.408;13.060;2022-12-07T09:35:28;14.50;84.70
3017;DHT22;1518;52.408;13.060;2022-12-07T09:38:17;14.50;84.50
3017;DHT22;1518;52.408;13.060;2022-12-07T09:41:06;14.50;84.60
3017;DHT22;1518;52.408;13.060;2022-12-07T09:44:02;14.50;85.00
3017;DHT22;1518;52.408;13.060;2022-12-07T09:46:51;14.50;85.10
3017;DHT22;1518;52.408;13.060;2022-12-07T09:49:40;14.50;84.90
3017;DHT22;1518;52.408;13.060;2022-12-07T09:52:30;14.40;84.80
3017;DHT22;1518;52.408;13.060;2022-12-07T09:55:27;14.40;84.60
3017;DHT22;1518;52.408;13.060;2022-12-07T09:58:20;14.40;85.10
3017;DHT22;1518;52.408;13.060;2022-12-07T10:01:12;14.40;84.70
3017;DHT22;1518;52.408;13.060;2022-12-07T10:04:09;14.40;85.40
3017;DHT22;1518;52.408;13.060;2022-12-07T10:07:00;14.40;85.10
3017;DHT22;1518;52.408;13.060;2022-12-07T10:09:49;14.40;84.90
3017;DHT22;1518;52.408;13.060;2022-12-07T10:12:53;14.40;84.80
3017;DHT22;1518;52.408;13.060;2022-12-07T10:15:48;14.50;84.80
3017;DHT22;1518;52.408;13.060;2022-12-07T10:18:37;14.50;85.30
3017;DHT22;1518;52.408;13.060;2022-12-07T10:21:28;14.50;85.20
3017;DHT22;1518;52.408;13.060;2022-12-07T10:24:16;14.50;84.40
3017;DHT22;1518;52.408;13.060;2022-12-07T10:27:18;14.60;84.50
3017;DHT22;1518;52.408;13.060;2022-12-07T10:30:12;14.60;84.60
3017;DHT22;1518;52.408;13.060;2022-12-07T10:33:02;14.70;84.90
3017;DHT22;1518;52.408;13.060;2022-12-07T10:35:50;14.70;84.80
3017;DHT22;1518;52.408;13.060;2022-12-07T10:38:44;14.80;84.40
3017;DHT22;1518;52.408;13.060;2022-12-07T10:41:33;14.80;84.50
3017;DHT22;1518;52.408;13.060;2022-12-07T10:44:24;14.80;84.50
3017;DHT22;1518;52.408;13.060;2022-12-07T10:47:25;14.80;84.20
3017;DHT22;1518;52.408;13.060;2022-12-07T10:50:49;14.80;84.20
3017;DHT22;1518;52.408;13.060;2022-12-07T10:53:48;14.80;83.90
3017;DHT22;1518;52.408;13.060;2022-12-07T11:00:18;14.70;84.00
3017;DHT22;1518;52.408;13.060;2022-12-07T11:06:37;14.70;83.90
3017;DHT22;1518;52.408;13.060;2022-12-07T11:09:45;14.60;84.00
3017;DHT22;1518;52.408;13.060;2022-12-07T11:13:12;14.60;84.20
3017;DHT22;1518;52.408;13.060;2022-12-07T11:16:19;14.50;83.80
3017;DHT22;1518;52.408;13.060;2022-12-07T11:22:31;14.50;84.50
3017;DHT22;1518;52.408;13.060;2022-12-07T11:25:26;14.50;84.40
3017;DHT22;1518;52.408;13.060;2022-12-07T11:28:28;14.50;84.50
3017;DHT22;1518;52.408;13.060;2022-12-07T11:31:26;14.50;84.70
3017;DHT22;1518;52.408;13.060;2022-12-07T11:34:24;14.50;84.30
3017;DHT22;1518;52.408;13.060;2022-12-07T11:37:18;14.50;84.80
3017;DHT22;1518;52.408;13.060;2022-12-07T11:40:15;14.50;84.60
3017;DHT22;1518;52.408;13.060;2022-12-07T11:43:11;14.50;84.30
3017;DHT22;1518;52.408;13.060;2022-12-07T11:46:03;14.50;84.80
3017;DHT22;1518;52.408;13.060;2022-12-07T11:49:01;14.60;84.80
3017;DHT22;1518;52.408;13.060;2022-12-07T11:51:53;14.60;84.50
3017;DHT22;1518;52.408;13.060;2022-12-07T11:54:43;14.60;84.50
3017;DHT22;1518;52.408;13.060;2022-12-07T11:57:39;14.60;84.60
3017;DHT22;1518;52.408;13.060;2022-12-07T12:00:29;14.60;84.30
3017;DHT22;1518;52.408;13.060;2022-12-07T12:03:23;14.70;84.70
3017;DHT22;1518;52.408;13.060;2022-12-07T12:06:19;14.70;84.50
3017;DHT22;1518;52.408;13.060;2022-12-07T12:09:13;14.70;84.40
3017;DHT22;1518;52.408;13.060;2022-12-07T12:12:55;14.70;84.40
3017;DHT22;1518;52.408;13.060;2022-12-07T12:16:17;14.70;84.20
3017;DHT22;1518;52.408;13.060;2022-12-07T12:19:20;14.70;84.10
3017;DHT22;1518;52.408;13.060;2022-12-07T12:22:16;14.70;84.00
3017;DHT22;1518;52.408;13.060;2022-12-07T12:25:15;14.70;84.40
3017;DHT22;1518;52.408;13.060;2022-12-07T12:28:20;14.70;84.20
3017;DHT22;1518;52.408;13.060;2022-12-07T12:31:13;14.60;84.40
3017;DHT22;1518;52.408;13.060;2022-12-07T12:34:03;14.60;84.30
3017;DHT22;1518;52.408;13.060;2022-12-07T12:36:51;14.60;84.20
3017;DHT22;1518;52.408;13.060;2022-12-07T12:43:41;14.60;84.60
3017;DHT22;1518;52.408;13.060;2022-12-07T12:46:52;14.60;84.60
3017;DHT22;1518;52.408;13.060;2022-12-07T12:49:41;14.50;84.40
3017;DHT22;1518;52.408;13.060;2022-12-07T12:52:49;14.50;84.60
3017;DHT22;1518;52.408;13.060;2022-12-07T12:56:07;14.50;84.90
3017;DHT22;1518;52.408;13.060;2022-12-07T12:59:22;14.60;84.80
3017;DHT22;1518;52.408;13.060;2022-12-07T13:02:19;14.60;84.80
3017;DHT22;1518;52.408;13.060;2022-12-07T13:05:19;14.60;85.20
3017;DHT22;1518;52.408;13.060;2022-12-07T13:08:14;14.70;85.20
3017;DHT22;1518;52.408;13.060;2022-12-07T13:11:27;14.80;85.30
3017;DHT22;1518;52.408;13.060;2022-12-07T13:14:40;14.80;85.00
3017;DHT22;1518;52.408;13.060;2022-12-07T13:17:57;14.90;84.70
3017;DHT22;1518;52.408;13.060;2022-12-07T13:20:50;14.90;84.40
3017;DHT22;1518;52.408;13.060;2022-12-07T13:23:54;14.90;84.30
3017;DHT22;1518;52.408;13.060;2022-12-07T13:26:45;14.90;84.40
3017;DHT22;1518;52.408;13.060;2022-12-07T13:29:36;14.90;84.30
3017;DHT22;1518;52.408;13.060;2022-12-07T13:32:26;15.00;84.30
3017;DHT22;1518;52.408;13.060;2022-12-07T13:35:32;14.90;84.10
3017;DHT22;1518;52.408;13.060;2022-12-07T13:38:27;15.00;84.20
3017;DHT22;1518;52.408;13.060;2022-12-07T13:41:17;14.90;84.10
3017;DHT22;1518;52.408;13.060;2022-12-07T13:44:11;14.90;84.00
3017;DHT22;1518;52.408;13.060;2022-12-07T13:47:04;14.90;83.90
3017;DHT22;1518;52.408;13.060;2022-12-07T13:49:55;14.80;83.70
3017;DHT22;1518;52.408;13.060;2022-12-07T13:52:44;14.80;84.00
3017;DHT22;1518;52.408;13.060;2022-12-07T13:55:32;14.80;83.90
3017;DHT22;1518;52.408;13.060;2022-12-07T13:58:21;14.80;83.90
3017;DHT22;1518;52.408;13.060;2022-12-07T14:01:11;14.70;84.00
3017;DHT22;1518;52.408;13.060;2022-12-07T14:04:34;14.70;84.10
3017;DHT22;1518;52.408;13.060;2022-12-07T14:07:24;14.70;84.20
3017;DHT22;1518;52.408;13.060;2022-12-07T14:10:23;14.60;85.00
3017;DHT22;1518;52.408;13.060;2022-12-07T14:13:28;14.60;84.30
3017;DHT22;1518;52.408;13.060;2022-12-07T14:16:23;14.60;84.20
3017;DHT22;1518;52.408;13.060;2022-12-07T14:19:44;14.60;84.60
3017;DHT22;1518;52.408;13.060;2022-12-07T14:22:37;14.60;84.30
3017;DHT22;1518;52.408;13.060;2022-12-07T14:25:26;14.60;84.60
3017;DHT22;1518;52.408;13.060;2022-12-07T14:28:26;14.60;84.50
3017;DHT22;1518;52.408;13.060;2022-12-07T14:31:16;14.60;84.50
3017;DHT22;1518;52.408;13.060;2022-12-07T14:34:19;14.60;84.60
3017;DHT22;1518;52.408;13.060;2022-12-07T14:37:08;14.70;84.70
3017;DHT22;1518;52.408;13.060;2022-12-07T14:39:57;14.70;84.50
3017;DHT22;1518;52.408;13.060;2022-12-07T14:42:47;14.70;84.40
3017;DHT22;1518;52.408;13.060;2022-12-07T14:45:36;14.70;84.50
3017;DHT22;1518;52.408;13.060;2022-12-07T14:48:24;14.80;84.10
3017;DHT22;1518;52.408;13.060;2022-12-07T14:51:34;14.80;84.40
3017;DHT22;1518;52.408;13.060;2022-12-07T14:54:43;14.80;84.00
3017;DHT22;1518;52.408;13.060;2022-12-07T14:57:31;14.80;85.00
3017;DHT22;1518;52.408;13.060;2022-12-07T15:00:23;14.80;84.20
3017;DHT22;1518;52.408;13.060;2022-12-07T15:03:11;14.80;84.00
3017;DHT22;1518;52.408;13.060;2022-12-07T15:06:00;14.70;83.90
3017;DHT22;1518;52.408;13.060;2022-12-07T15:08:50;14.70;84.10
3017;DHT22;1518;52.408;13.060;2022-12-07T15:11:38;14.70;84.20
3017;DHT22;1518;52.408;13.060;2022-12-07T15:14:30;14.60;84.10
3017;DHT22;1518;52.408;13.060;2022-12-07T15:17:18;14.60;84.20
3017;DHT22;1518;52.408;13.060;2022-12-07T15:20:17;14.60;84.20
3017;DHT22;1518;52.408;13.060;2022-12-07T15:23:05;14.60;84.10
3017;DHT22;1518;52.408;13.060;2022-12-07T15:25:55;14.60;84.30
3017;DHT22;1518;52.408;13.060;2022-12-07T15:28:43;14.50;84.30
3017;DHT22;1518;52.408;13.060;2022-12-07T15:31:31;14.50;84.40
3017;DHT22;1518;52.408;13.060;2022-12-07T15:34:39;14.50;84.30
3017;DHT22;1518;52.408;13.060;2022-12-07T15:37:27;14.40;84.30
3017;DHT22;1518;52.408;13.060;2022-12-07T15:40:16;14.40;84.30
3017;DHT22;1518;52.408;13.060;2022-12-07T15:43:05;14.40;84.80
3017;DHT22;1518;52.408;13.060;2022-12-07T15:46:13;14.40;84.60
3017;DHT22;1518;52.408;13.060;2022-12-07T15:49:01;14.40;84.70
3017;DHT22;1518;52.408;13.060;2022-12-07T15:51:50;14.40;84.70
3017;DHT22;1518;52.408;13.060;2022-12-07T15:54:38;14.50;84.90
3017;DHT22;1518;52.408;13.060;2022-12-07T15:57:26;14.40;84.60
3017;DHT22;1518;52.408;13.060;2022-12-07T16:00:17;14.50;84.70
3017;DHT22;1518;52.408;13.060;2022-12-07T16:03:05;14.60;84.80
3017;DHT22;1518;52.408;13.060;2022-12-07T16:05:53;14.60;84.60
3017;DHT22;1518;52.408;13.060;2022-12-07T16:08:42;14.60;84.30
3017;DHT22;1518;52.408;13.060;2022-12-07T16:11:30;14.60;84.30
3017;DHT22;1518;52.408;13.060;2022-12-07T16:14:19;14.70;84.00
3017;DHT22;1518;52.408;13.060;2022-12-07T16:17:09;14.50;83.80
3017;DHT22;1518;52.408;13.060;2022-12-07T16:19:57;14.70;84.00
3017;DHT22;1518;52.408;13.060;2022-12-07T16:22:45;14.70;83.70
3017;DHT22;1518;52.408;13.060;2022-12-07T16:25:33;14.70;84.00
3017;DHT22;1518;52.408;13.060;2022-12-07T16:28:21;14.70;84.00
3017;DHT22;1518;52.408;13.060;2022-12-07T16:31:11;14.70;83.80
3017;DHT22;1518;52.408;13.060;2022-12-07T16:34:01;14.60;84.00
3017;DHT22;1518;52.408;13.060;2022-12-07T16:36:49;14.60;84.00
3017;DHT22;1518;52.408;13.060;2022-12-07T16:39:50;14.50;83.70
3017;DHT22;1518;52.408;13.060;2022-12-07T16:42:38;14.50;84.10
3017;DHT22;1518;52.408;13.060;2022-12-07T16:45:26;14.50;83.90
3017;DHT22;1518;52.408;13.060;2022-12-07T16:48:15;14.50;84.20
3017;DHT22;1518;52.408;13.060;2022-12-07T16:51:06;14.50;84.00
3017;DHT22;1518;52.408;13.060;2022-12-07T16:53:55;14.50;84.30
3017;DHT22;1518;52.408;13.060;2022-12-07T16:56:43;14.40;83.90
3017;DHT22;1518;52.408;13.060;2022-12-07T16:59:32;14.30;83.70
3017;DHT22;1518;52.408;13.060;2022-12-07T17:02:20;14.30;84.20
3017;DHT22;1518;52.408;13.060;2022-12-07T17:05:08;14.30;84.40
3017;DHT22;1518;52.408;13.060;2022-12-07T17:07:57;14.30;84.40
3017;DHT22;1518;52.408;13.060;2022-12-07T17:10:45;14.30;84.60
3017;DHT22;1518;52.408;13.060;2022-12-07T17:13:34;14.40;84.80
3017;DHT22;1518;52.408;13.060;2022-12-07T17:16:39;14.40;84.70
3017;DHT22;1518;52.408;13.060;2022-12-07T17:19:27;14.40;84.60
3017;DHT22;1518;52.408;13.060;2022-12-07T17:22:15;14.40;84.50
3017;DHT22;1518;52.408;13.060;2022-12-07T17:25:05;14.40;83.90
3017;DHT22;1518;52.408;13.060;2022-12-07T17:27:54;14.50;84.50
3017;DHT22;1518;52.408;13.060;2022-12-07T17:30:42;14.50;84.20
3017;DHT22;1518;52.408;13.060;2022-12-07T17:33:30;14.50;84.40
3017;DHT22;1518;52.408;13.060;2022-12-07T17:36:20;14.50;84.20
3017;DHT22;1518;52.408;13.060;2022-12-07T17:39:10;14.60;84.30
3017;DHT22;1518;52.408;13.060;2022-12-07T17:42:01;14.60;84.10
3017;DHT22;1518;52.408;13.060;2022-12-07T17:45:09;14.60;83.90
3017;DHT22;1518;52.408;13.060;2022-12-07T17:47:58;14.60;83.70
3017;DHT22;1518;52.408;13.060;2022-12-07T17:50:46;14.60;83.60
3017;DHT22;1518;52.408;13.060;2022-12-07T17:53:51;14.60;83.90
3017;DHT22;1518;52.408;13.060;2022-12-07T17:56:40;14.50;83.50
3017;DHT22;1518;52.408;13.060;2022-12-07T17:59:29;14.50;84.00
3017;DHT22;1518;52.408;13.060;2022-12-07T18:02:17;14.50;84.00
3017;DHT22;1518;52.408;13.060;2022-12-07T18:05:06;14.40;83.90
3017;DHT22;1518;52.408;13.060;2022-12-07T18:07:54;14.40;84.10
3017;DHT22;1518;52.408;13.060;2022-12-07T18:10:42;14.40;84.30
3017;DHT22;1518;52.408;13.060;2022-12-07T18:13:31;14.40;84.00
3017;DHT22;1518;52.408;13.060;2022-12-07T18:16:28;14.40;84.20
3017;DHT22;1518;52.408;13.060;2022-12-07T18:19:17;14.30;84.20
3017;DHT22;1518;52.408;13.060;2022-12-07T18:22:05;14.30;84.00
3017;DHT22;1518;52.408;13.060;2022-12-07T18:24:53;14.30;84.00
3017;DHT22;1518;52.408;13.060;2022-12-07T18:27:41;14.30;84.40
3017;DHT22;1518;52.408;13.060;2022-12-07T18:30:29;14.30;84.70
3017;DHT22;1518;52.408;13.060;2022-12-07T18:33:38;14.30;84.80
3017;DHT22;1518;52.408;13.060;2022-12-07T18:36:27;14.30;84.60
3017;DHT22;1518;52.408;13.060;2022-12-07T18:39:16;14.30;85.10
3017;DHT22;1518;52.408;13.060;2022-12-07T18:42:05;14.40;85.50
3017;DHT22;1518;52.408;13.060;2022-12-07T18:44:54;14.40;84.60
3017;DHT22;1518;52.408;13.060;2022-12-07T18:47:42;14.40;84.40